Time;durP1;ratioP1;P1;durP2;ratioP2;P2;SDS_P1;SDS_P2;PMS_P1;PMS_P2;Temp;Humidity;BMP_temperature;BMP_pressure;BME280_temperature;BME280_humidity;BME280_pressure;Samples;Min_cycle;Max_cycle;Signal;HPM_P1;HPM_P2
2021/07/08 00:00:10;;;;;;;1.50;1.40;;;19.30;99.90;;;;;;4173968;28;20665;-73
2021/07/08 00:02:12;;;;;;;1.80;1.50;;;19.30;99.90;;;;;;4168987;28;20273;-72
2021/07/08 00:04:14;;;;;;;2.37;1.40;;;19.30;99.90;;;;;;4175066;28;20260;-72
2021/07/08 00:06:16;;;;;;;1.80;1.50;;;19.30;99.90;;;;;;4172561;28;20281;-73
2021/07/08 00:08:18;;;;;;;2.07;1.70;;;19.30;99.90;;;;;;4169088;28;20421;-73
2021/07/08 00:10:23;;;;;;;2.30;1.40;;;19.30;99.90;;;;;;4172128;28;20214;-73
2021/07/08 00:12:25;;;;;;;2.17;1.60;;;19.20;99.90;;;;;;4181557;28;20217;-72
2021/07/08 00:14:28;;;;;;;2.13;1.43;;;19.20;99.90;;;;;;4181263;28;20218;-71
2021/07/08 00:16:30;;;;;;;3.43;1.50;;;19.20;99.90;;;;;;4181358;28;20245;-73
2021/07/08 00:18:32;;;;;;;1.90;1.20;;;19.20;99.90;;;;;;4169575;28;20240;-73
2021/07/08 00:20:35;;;;;;;1.97;1.20;;;19.20;99.90;;;;;;4181688;28;20215;-72
2021/07/08 00:22:36;;;;;;;3.20;1.40;;;19.20;99.90;;;;;;4181056;28;20222;-72
2021/07/08 00:24:38;;;;;;;1.67;1.40;;;19.10;99.90;;;;;;4180766;28;20276;-72
2021/07/08 00:26:40;;;;;;;2.20;1.60;;;19.10;99.90;;;;;;4165712;28;20216;-72
2021/07/08 00:28:42;;;;;;;1.50;1.40;;;19.10;99.90;;;;;;4179930;28;20236;-72
2021/07/08 00:30:48;;;;;;;1.93;1.60;;;19.10;99.90;;;;;;4180960;28;20633;-72
2021/07/08 00:32:50;;;;;;;1.33;1.13;;;19.00;99.90;;;;;;4182120;28;20210;-72
2021/07/08 00:34:51;;;;;;;1.47;1.37;;;19.00;99.90;;;;;;4171920;28;20277;-72
2021/07/08 00:36:53;;;;;;;2.23;1.50;;;19.00;99.90;;;;;;4165437;28;20234;-72
2021/07/08 00:38:55;;;;;;;3.77;1.80;;;19.00;99.90;;;;;;4175902;28;20207;-72
2021/07/08 00:40:57;;;;;;;3.17;1.33;;;19.00;99.90;;;;;;4181512;28;20345;-73
2021/07/08 00:42:59;;;;;;;1.83;1.47;;;18.90;99.90;;;;;;4180683;28;20260;-72
2021/07/08 00:45:01;;;;;;;2.93;1.70;;;18.90;99.90;;;;;;4176951;28;20210;-73
2021/07/08 00:47:05;;;;;;;2.67;1.67;;;18.90;99.90;;;;;;4181529;28;20210;-72
2021/07/08 00:49:07;;;;;;;2.30;1.80;;;18.90;99.90;;;;;;4181551;28;20564;-73
2021/07/08 00:51:08;;;;;;;1.90;1.70;;;18.90;99.90;;;;;;4180883;28;20263;-72
2021/07/08 00:53:11;;;;;;;3.27;1.83;;;18.90;99.90;;;;;;4174106;28;20234;-72
2021/07/08 00:55:13;;;;;;;1.90;1.57;;;18.90;99.90;;;;;;4181434;28;20909;-73
2021/07/08 00:57:15;;;;;;;4.30;1.70;;;18.90;99.90;;;;;;4182990;28;20308;-72
2021/07/08 00:59:18;;;;;;;2.40;2.00;;;18.80;99.90;;;;;;4183430;28;20206;-72
2021/07/08 01:01:19;;;;;;;2.00;1.60;;;18.80;99.90;;;;;;4178349;28;20210;-72
2021/07/08 01:03:23;;;;;;;3.40;1.50;;;18.80;99.90;;;;;;4178059;28;20263;-72
2021/07/08 01:05:27;;;;;;;3.70;2.00;;;18.80;99.90;;;;;;4173055;28;20280;-73
2021/07/08 01:07:29;;;;;;;5.80;1.90;;;18.80;99.90;;;;;;4181629;28;20228;-72
2021/07/08 01:09:31;;;;;;;2.07;1.60;;;18.70;99.90;;;;;;4165362;28;20207;-72
2021/07/08 01:11:33;;;;;;;1.87;1.60;;;18.70;99.90;;;;;;4169918;28;20591;-72
2021/07/08 01:13:35;;;;;;;1.80;1.70;;;18.70;99.90;;;;;;4169562;28;20230;-71
2021/07/08 01:15:36;;;;;;;3.13;1.73;;;18.60;99.90;;;;;;4165338;28;20250;-72
2021/07/08 01:17:40;;;;;;;3.67;1.90;;;18.70;99.90;;;;;;4170173;28;20293;-72
2021/07/08 01:19:45;;;;;;;4.17;2.13;;;18.70;99.90;;;;;;4175024;28;20218;-73
2021/07/08 01:21:48;;;;;;;2.00;1.70;;;18.60;99.90;;;;;;4171340;28;20207;-72
2021/07/08 01:23:50;;;;;;;3.87;2.00;;;18.60;99.90;;;;;;4169870;28;20219;-72
2021/07/08 01:25:52;;;;;;;2.03;1.80;;;18.60;99.90;;;;;;4165244;28;20272;-73
2021/07/08 01:27:55;;;;;;;2.53;1.87;;;18.60;99.90;;;;;;4178932;28;20271;-72
2021/07/08 01:29:58;;;;;;;4.07;1.90;;;18.60;99.90;;;;;;4180569;28;20210;-72
2021/07/08 01:32:00;;;;;;;2.27;1.83;;;18.60;99.90;;;;;;4180884;28;20206;-73
2021/07/08 01:34:02;;;;;;;3.80;1.70;;;18.50;99.90;;;;;;4180812;28;20237;-72
2021/07/08 01:36:04;;;;;;;2.43;1.70;;;18.50;99.90;;;;;;4175236;28;20676;-73
2021/07/08 01:38:08;;;;;;;2.53;1.87;;;18.50;99.90;;;;;;4174084;28;20237;-73
2021/07/08 01:40:13;;;;;;;2.97;2.00;;;18.50;99.90;;;;;;4189066;28;20300;-72
2021/07/08 01:42:15;;;;;;;4.20;2.13;;;18.50;99.90;;;;;;4190002;28;20287;-72
2021/07/08 01:44:17;;;;;;;3.03;1.93;;;18.50;99.90;;;;;;4179238;28;20206;-72
2021/07/08 01:46:19;;;;;;;2.80;1.90;;;18.40;99.90;;;;;;4181477;28;20309;-72
2021/07/08 01:48:21;;;;;;;1.90;1.70;;;18.40;99.90;;;;;;4172597;28;20234;-72
2021/07/08 01:50:23;;;;;;;2.13;1.83;;;18.40;99.90;;;;;;4178302;28;20302;-72
2021/07/08 01:52:25;;;;;;;2.33;2.13;;;18.40;99.90;;;;;;4181251;28;20217;-72
2021/07/08 01:54:28;;;;;;;2.87;1.97;;;18.30;99.90;;;;;;4171435;28;20226;-72
2021/07/08 01:56:30;;;;;;;3.10;2.23;;;18.40;99.90;;;;;;4176215;28;20210;-71
2021/07/08 01:58:32;;;;;;;3.73;1.90;;;18.40;99.90;;;;;;4173528;28;20230;-72
2021/07/08 02:00:34;;;;;;;2.20;1.93;;;18.30;99.90;;;;;;4179814;28;20258;-72
2021/07/08 02:02:35;;;;;;;2.83;2.07;;;18.30;99.90;;;;;;4176992;28;20257;-72
2021/07/08 02:04:37;;;;;;;3.13;1.93;;;18.30;99.90;;;;;;4164736;28;20241;-72
2021/07/08 02:06:39;;;;;;;2.53;2.00;;;18.30;99.90;;;;;;4179837;28;20210;-72
2021/07/08 02:08:41;;;;;;;2.37;2.17;;;18.30;99.90;;;;;;4177254;28;20282;-73
2021/07/08 02:10:44;;;;;;;5.17;2.10;;;18.30;99.90;;;;;;4179886;28;20210;-73
2021/07/08 02:12:46;;;;;;;2.23;1.90;;;18.20;99.90;;;;;;4178271;28;20572;-72
2021/07/08 02:14:48;;;;;;;2.80;2.20;;;18.20;99.90;;;;;;4180196;28;20598;-72
2021/07/08 02:16:50;;;;;;;3.87;2.60;;;18.20;99.90;;;;;;4177991;28;20237;-73
2021/07/08 02:18:53;;;;;;;2.83;2.10;;;18.20;99.90;;;;;;4180393;28;20275;-72
2021/07/08 02:20:54;;;;;;;6.27;2.47;;;18.20;99.90;;;;;;4177227;28;20211;-72
2021/07/08 02:22:56;;;;;;;3.07;2.00;;;18.20;99.90;;;;;;4175768;28;20253;-72
2021/07/08 02:24:58;;;;;;;4.73;2.30;;;18.20;99.90;;;;;;4164190;28;20242;-72
2021/07/08 02:27:01;;;;;;;3.13;2.23;;;18.20;99.90;;;;;;4164332;28;20741;-72
2021/07/08 02:29:03;;;;;;;4.17;2.27;;;18.20;99.90;;;;;;4179636;28;20214;-72
2021/07/08 02:31:05;;;;;;;3.33;2.50;;;18.20;99.90;;;;;;4177325;28;20214;-72
2021/07/08 02:33:08;;;;;;;3.10;2.10;;;18.20;99.90;;;;;;4179529;28;20206;-72
2021/07/08 02:35:11;;;;;;;4.43;2.20;;;18.20;99.90;;;;;;4180607;28;20287;-72
2021/07/08 02:37:13;;;;;;;3.63;2.43;;;18.20;99.90;;;;;;4176640;28;20230;-72
2021/07/08 02:39:15;;;;;;;4.10;2.60;;;18.20;99.90;;;;;;4176074;28;20566;-72
2021/07/08 02:41:17;;;;;;;3.53;2.43;;;18.20;99.90;;;;;;4179642;28;20215;-72
2021/07/08 02:43:20;;;;;;;4.10;2.47;;;18.20;99.90;;;;;;4175690;28;20717;-72
2021/07/08 02:45:24;;;;;;;3.30;2.57;;;18.20;99.90;;;;;;4179738;28;20207;-72
2021/07/08 02:47:26;;;;;;;3.10;2.17;;;18.20;99.90;;;;;;4173683;28;20239;-73
2021/07/08 02:49:28;;;;;;;3.67;2.50;;;18.20;99.90;;;;;;4176983;28;20206;-72
2021/07/08 02:51:30;;;;;;;5.33;2.73;;;18.20;99.90;;;;;;4170934;28;20265;-72
2021/07/08 02:53:32;;;;;;;4.40;2.30;;;18.20;99.90;;;;;;4178159;28;20206;-72
2021/07/08 02:55:33;;;;;;;3.40;2.37;;;18.20;99.90;;;;;;4179404;28;20617;-72
2021/07/08 02:57:35;;;;;;;4.23;2.30;;;18.20;99.90;;;;;;4177697;28;20234;-72
2021/07/08 02:59:38;;;;;;;2.80;2.37;;;18.20;99.90;;;;;;4188016;28;20209;-73
2021/07/08 03:01:40;;;;;;;2.37;2.07;;;18.20;99.90;;;;;;4172653;28;20718;-72
2021/07/08 03:03:41;;;;;;;3.30;2.57;;;18.20;99.90;;;;;;4168778;28;20578;-73
2021/07/08 03:05:43;;;;;;;3.77;2.60;;;18.20;99.90;;;;;;4178422;28;20646;-72
2021/07/08 03:07:45;;;;;;;2.40;2.20;;;18.20;99.90;;;;;;4177804;28;20225;-72
2021/07/08 03:09:47;;;;;;;3.27;2.60;;;18.20;99.90;;;;;;4179309;28;20693;-73
2021/07/08 03:11:48;;;;;;;4.97;2.50;;;18.20;99.90;;;;;;4188117;28;20720;-72
2021/07/08 03:13:50;;;;;;;3.03;2.27;;;18.20;99.90;;;;;;4195600;28;20642;-72
2021/07/08 03:15:53;;;;;;;6.57;2.63;;;18.20;99.90;;;;;;4166092;28;20621;-72
2021/07/08 03:17:57;;;;;;;4.83;2.70;;;18.20;99.90;;;;;;4179292;28;20296;-73
2021/07/08 03:19:58;;;;;;;4.70;2.43;;;18.20;99.90;;;;;;4179800;28;20206;-71
2021/07/08 03:22:00;;;;;;;4.77;2.47;;;18.20;99.90;;;;;;4179783;28;20206;-72
2021/07/08 03:24:02;;;;;;;3.47;2.67;;;18.20;99.90;;;;;;4171926;28;20266;-71
2021/07/08 03:26:04;;;;;;;3.87;2.80;;;18.20;99.90;;;;;;4163997;28;20215;-72
2021/07/08 03:28:06;;;;;;;4.17;2.40;;;18.20;99.90;;;;;;4172608;28;20292;-71
2021/07/08 03:30:10;;;;;;;3.37;2.47;;;18.20;99.90;;;;;;4179154;28;20588;-71
2021/07/08 03:32:13;;;;;;;2.77;2.27;;;18.20;99.90;;;;;;4177589;28;20210;-72
2021/07/08 03:34:15;;;;;;;3.03;2.47;;;18.20;99.90;;;;;;4178830;28;20226;-72
2021/07/08 03:36:16;;;;;;;5.57;2.57;;;18.20;99.90;;;;;;4179927;28;20207;-72
2021/07/08 03:38:18;;;;;;;3.50;2.50;;;18.20;99.90;;;;;;4178222;28;20644;-71
2021/07/08 03:40:21;;;;;;;5.60;2.83;;;18.20;99.90;;;;;;4176868;28;20692;-71
2021/07/08 03:42:22;;;;;;;2.47;2.17;;;18.20;99.90;;;;;;4178959;28;20211;-72
2021/07/08 03:44:24;;;;;;;2.73;2.50;;;18.20;99.90;;;;;;4179116;28;20651;-71
2021/07/08 03:46:26;;;;;;;3.67;2.37;;;18.20;99.90;;;;;;4180335;28;20725;-72
2021/07/08 03:48:29;;;;;;;4.13;2.70;;;18.20;99.90;;;;;;4177374;28;20238;-74
2021/07/08 03:50:31;;;;;;;6.40;2.80;;;18.20;99.90;;;;;;4188271;28;20211;-71
2021/07/08 03:52:32;;;;;;;8.53;3.10;;;18.20;99.90;;;;;;4188741;28;20214;-72
2021/07/08 03:54:34;;;;;;;3.90;2.70;;;18.20;99.90;;;;;;4179626;28;20242;-71
2021/07/08 03:56:36;;;;;;;4.80;3.00;;;18.20;99.90;;;;;;4172915;28;20281;-71
2021/07/08 03:58:39;;;;;;;3.93;2.70;;;18.20;99.90;;;;;;4179951;28;20230;-71
2021/07/08 04:00:42;;;;;;;3.53;3.00;;;18.20;99.90;;;;;;4169985;28;20238;-71
2021/07/08 04:02:43;;;;;;;8.90;2.90;;;18.30;99.90;;;;;;4174994;28;20267;-72
2021/07/08 04:04:46;;;;;;;5.27;3.23;;;18.20;99.90;;;;;;4181223;28;20214;-71
2021/07/08 04:06:48;;;;;;;3.30;2.63;;;18.20;99.90;;;;;;4179887;28;20608;-72
2021/07/08 04:08:50;;;;;;;4.90;2.97;;;18.30;99.90;;;;;;4182220;28;20248;-73
2021/07/08 04:10:52;;;;;;;5.37;2.90;;;18.30;99.90;;;;;;4181459;28;20206;-71
2021/07/08 04:12:54;;;;;;;4.00;3.00;;;18.30;99.90;;;;;;4181052;28;20268;-71
2021/07/08 04:14:56;;;;;;;3.00;2.57;;;18.30;99.90;;;;;;4174953;28;20632;-71
2021/07/08 04:16:57;;;;;;;8.87;3.00;;;18.30;99.90;;;;;;4181597;28;20207;-71
2021/07/08 04:18:59;;;;;;;6.47;3.10;;;18.30;99.90;;;;;;4181253;28;20210;-71
2021/07/08 04:21:02;;;;;;;6.07;3.07;;;18.30;99.90;;;;;;4179760;28;20214;-71
2021/07/08 04:23:05;;;;;;;5.23;2.87;;;18.40;99.90;;;;;;4181345;28;20640;-71
2021/07/08 04:25:08;;;;;;;4.40;3.17;;;18.30;99.90;;;;;;4179111;28;20293;-72
2021/07/08 04:27:10;;;;;;;4.37;2.80;;;18.30;99.90;;;;;;4181154;28;20722;-71
2021/07/08 04:29:12;;;;;;;3.53;2.50;;;18.30;99.90;;;;;;4173873;28;20243;-71
2021/07/08 04:31:15;;;;;;;7.93;3.17;;;18.30;99.90;;;;;;4174240;28;20259;-71
2021/07/08 04:33:18;;;;;;;5.83;3.00;;;18.30;99.90;;;;;;4177217;28;20210;-71
2021/07/08 04:35:21;;;;;;;3.57;2.80;;;18.30;99.90;;;;;;4180310;28;20226;-71
2021/07/08 04:37:24;;;;;;;8.10;3.10;;;18.30;99.90;;;;;;4179130;28;20233;-71
2021/07/08 04:39:26;;;;;;;6.53;3.23;;;18.30;99.90;;;;;;4179186;28;20203;-71
2021/07/08 04:41:28;;;;;;;6.30;3.50;;;18.40;99.90;;;;;;4181158;28;20207;-72
2021/07/08 04:43:29;;;;;;;4.83;3.10;;;18.30;99.90;;;;;;4181868;28;20206;-72
2021/07/08 04:45:31;;;;;;;8.83;3.30;;;18.30;99.90;;;;;;4172663;28;20210;-72
2021/07/08 04:47:33;;;;;;;5.37;3.30;;;18.30;99.90;;;;;;4180476;28;20268;-71
2021/07/08 04:49:35;;;;;;;7.23;3.57;;;18.30;99.90;;;;;;4166941;28;20664;-71
2021/07/08 04:51:38;;;;;;;5.90;3.23;;;18.40;99.90;;;;;;4177109;28;20238;-71
2021/07/08 04:53:43;;;;;;;4.93;3.30;;;18.40;99.90;;;;;;4180313;28;20213;-72
2021/07/08 04:55:46;;;;;;;6.77;3.43;;;18.40;99.90;;;;;;4180518;28;20227;-71
2021/07/08 04:57:47;;;;;;;5.73;3.80;;;18.40;99.90;;;;;;4172433;28;20229;-72
2021/07/08 04:59:49;;;;;;;4.77;3.40;;;18.50;99.90;;;;;;4180259;28;20733;-71
2021/07/08 05:01:51;;;;;;;5.13;3.53;;;18.40;99.90;;;;;;4184200;28;20667;-71
2021/07/08 05:03:57;;;;;;;5.13;3.30;;;18.50;99.90;;;;;;4175265;28;20218;-71
2021/07/08 05:05:59;;;;;;;5.00;3.47;;;18.50;99.90;;;;;;4173195;28;20260;-72
2021/07/08 05:08:01;;;;;;;8.80;3.37;;;18.50;99.90;;;;;;4180499;28;20235;-72
2021/07/08 05:10:06;;;;;;;9.10;3.60;;;18.50;99.90;;;;;;4179773;28;20599;-72
2021/07/08 05:12:08;;;;;;;5.27;3.30;;;18.60;99.90;;;;;;4179370;28;20255;-71
2021/07/08 05:14:10;;;;;;;5.60;3.80;;;18.60;99.90;;;;;;4176735;28;20569;-73
2021/07/08 05:16:12;;;;;;;6.43;3.83;;;18.60;99.90;;;;;;4168816;28;20280;-71
2021/07/08 05:18:14;;;;;;;7.93;3.80;;;18.60;99.90;;;;;;4171601;28;20572;-74
2021/07/08 05:20:17;;;;;;;6.77;3.90;;;18.60;99.90;;;;;;4173424;28;20207;-73
2021/07/08 05:22:21;;;;;;;9.10;3.67;;;18.60;99.90;;;;;;4175866;28;20223;-72
2021/07/08 05:24:25;;;;;;;7.57;4.17;;;18.60;99.90;;;;;;4169828;28;20225;-71
2021/07/08 05:26:29;;;;;;;9.23;3.57;;;18.60;99.90;;;;;;4175607;28;20257;-71
2021/07/08 05:28:31;;;;;;;7.07;3.87;;;18.60;99.90;;;;;;4169288;28;20692;-71
2021/07/08 05:30:33;;;;;;;7.20;3.90;;;18.60;99.90;;;;;;4176349;28;20221;-72
2021/07/08 05:32:35;;;;;;;6.40;3.63;;;18.60;99.90;;;;;;4174070;28;20238;-72
2021/07/08 05:34:37;;;;;;;8.20;4.23;;;18.60;99.90;;;;;;4171137;28;20203;-73
2021/07/08 05:36:39;;;;;;;5.83;3.90;;;18.60;99.90;;;;;;4174020;28;20215;-70
2021/07/08 05:38:40;;;;;;;12.63;3.53;;;18.60;99.90;;;;;;4170943;28;20226;-71
2021/07/08 05:40:42;;;;;;;5.83;3.37;;;18.60;99.90;;;;;;4170266;28;20218;-73
2021/07/08 05:42:45;;;;;;;6.47;3.80;;;18.70;99.90;;;;;;4178861;28;20678;-73
2021/07/08 05:44:47;;;;;;;8.93;3.80;;;18.70;99.90;;;;;;4174505;28;20206;-71
2021/07/08 05:46:49;;;;;;;6.97;3.50;;;18.80;99.90;;;;;;4180825;28;20207;-71
2021/07/08 05:48:51;;;;;;;7.10;3.47;;;18.80;99.90;;;;;;4179898;28;20221;-72
2021/07/08 05:50:52;;;;;;;7.10;3.70;;;18.80;99.90;;;;;;4179412;28;20210;-71
2021/07/08 05:52:54;;;;;;;7.13;3.63;;;18.90;99.90;;;;;;4173178;28;20233;-71
2021/07/08 05:54:56;;;;;;;7.37;3.70;;;18.90;99.90;;;;;;4179763;28;20202;-73
2021/07/08 05:56:57;;;;;;;4.77;3.80;;;19.00;99.90;;;;;;4181051;28;20252;-72
2021/07/08 05:59:01;;;;;;;8.03;4.07;;;19.00;99.90;;;;;;4179757;28;20207;-71
2021/07/08 06:01:03;;;;;;;7.03;3.83;;;19.00;99.90;;;;;;4174722;28;20206;-71
2021/07/08 06:03:05;;;;;;;6.23;3.80;;;19.00;99.90;;;;;;4177285;28;20595;-71
2021/07/08 06:05:07;;;;;;;7.27;3.70;;;19.00;99.90;;;;;;4179665;28;20199;-71
2021/07/08 06:07:09;;;;;;;6.20;3.23;;;19.00;99.90;;;;;;4179291;28;20621;-71
2021/07/08 06:09:11;;;;;;;5.83;3.60;;;19.00;99.90;;;;;;4179608;28;20206;-71
2021/07/08 06:11:13;;;;;;;6.73;3.70;;;19.10;99.90;;;;;;4174060;28;20211;-71
2021/07/08 06:13:15;;;;;;;6.43;3.40;;;19.10;99.90;;;;;;4174615;28;20266;-71
2021/07/08 06:15:20;;;;;;;7.33;3.53;;;19.10;99.90;;;;;;4178788;28;20801;-71
2021/07/08 06:17:22;;;;;;;5.87;3.60;;;19.20;99.90;;;;;;4179385;28;20317;-72
2021/07/08 06:19:23;;;;;;;5.77;3.60;;;19.30;99.90;;;;;;4178888;28;20218;-72
2021/07/08 06:21:25;;;;;;;4.60;3.70;;;19.30;99.90;;;;;;4178608;28;20210;-72
2021/07/08 06:23:27;;;;;;;6.70;4.23;;;19.40;99.90;;;;;;4183422;28;20267;-72
2021/07/08 06:25:30;;;;;;;6.93;3.80;;;19.50;99.90;;;;;;4178676;28;21823;-72
2021/07/08 06:27:32;;;;;;;6.97;3.87;;;19.60;99.90;;;;;;4172346;28;20230;-72
2021/07/08 06:29:34;;;;;;;7.00;3.83;;;19.70;99.90;;;;;;4179491;28;20208;-72
2021/07/08 06:31:37;;;;;;;6.67;3.40;;;19.70;99.90;;;;;;4179606;28;20663;-73
2021/07/08 06:33:39;;;;;;;7.90;3.97;;;19.80;99.90;;;;;;4180760;28;20217;-72
2021/07/08 06:35:40;;;;;;;11.23;4.00;;;19.80;99.90;;;;;;4155487;28;20242;-75
2021/07/08 06:37:42;;;;;;;8.00;3.60;;;19.90;99.90;;;;;;4162214;28;20322;-72
2021/07/08 06:39:45;;;;;;;12.77;4.13;;;19.90;99.90;;;;;;4171435;28;20212;-73
2021/07/08 06:41:47;;;;;;;8.97;4.03;;;20.00;99.90;;;;;;4175538;28;20217;-73
2021/07/08 06:43:49;;;;;;;5.70;3.83;;;20.00;99.90;;;;;;4173649;28;20994;-73
2021/07/08 06:45:51;;;;;;;5.90;3.50;;;20.00;99.90;;;;;;4175729;28;20217;-72
2021/07/08 06:48:01;;;;;;;8.10;3.50;;;20.00;99.90;;;;;;4177747;28;20248;-72
2021/07/08 06:50:05;;;;;;;7.57;3.83;;;20.00;99.90;;;;;;4175023;28;20274;-72
2021/07/08 06:52:07;;;;;;;5.03;3.77;;;20.10;99.90;;;;;;4175128;28;20280;-73
2021/07/08 06:54:09;;;;;;;6.17;3.20;;;20.10;99.90;;;;;;4164898;28;20647;-72
2021/07/08 06:56:10;;;;;;;6.77;3.60;;;20.10;99.90;;;;;;4174826;28;20303;-72
2021/07/08 06:58:12;;;;;;;5.13;3.50;;;20.10;99.90;;;;;;4174938;28;20232;-72
2021/07/08 07:00:14;;;;;;;5.37;3.33;;;20.10;99.90;;;;;;4173807;28;20217;-72
2021/07/08 07:02:16;;;;;;;8.37;3.47;;;20.10;99.90;;;;;;4170019;28;20599;-74
2021/07/08 07:04:20;;;;;;;6.20;3.60;;;20.20;99.90;;;;;;4187817;28;20274;-72
2021/07/08 07:06:21;;;;;;;5.07;3.07;;;20.20;99.90;;;;;;4173979;28;20215;-73
2021/07/08 07:08:23;;;;;;;5.37;3.73;;;20.20;99.90;;;;;;4164677;28;20275;-72
2021/07/08 07:10:26;;;;;;;5.67;3.97;;;20.30;99.90;;;;;;4164590;28;20281;-71
2021/07/08 07:12:28;;;;;;;6.27;3.83;;;20.40;99.90;;;;;;4174480;28;20210;-72
2021/07/08 07:14:30;;;;;;;8.23;3.70;;;20.40;99.90;;;;;;4166724;28;20220;-73
2021/07/08 07:16:31;;;;;;;4.53;3.10;;;20.50;99.90;;;;;;4175519;28;20295;-72
2021/07/08 07:18:33;;;;;;;5.83;3.90;;;20.60;99.90;;;;;;4172165;28;20266;-72
2021/07/08 07:20:36;;;;;;;4.40;3.57;;;20.70;99.90;;;;;;4174116;28;20214;-72
2021/07/08 07:22:38;;;;;;;5.50;3.37;;;20.80;99.90;;;;;;4175445;28;20216;-73
2021/07/08 07:24:43;;;;;;;9.20;3.90;;;20.90;99.90;;;;;;4174875;28;20248;-73
2021/07/08 07:26:45;;;;;;;6.93;4.03;;;21.00;99.90;;;;;;4173560;28;20260;-72
2021/07/08 07:28:47;;;;;;;6.90;3.70;;;21.10;99.90;;;;;;4174470;28;20238;-73
2021/07/08 07:30:49;;;;;;;6.60;3.37;;;21.20;99.90;;;;;;4176561;28;20207;-73
2021/07/08 07:32:51;;;;;;;4.97;3.50;;;21.20;99.90;;;;;;4178244;28;20218;-73
2021/07/08 07:34:52;;;;;;;6.43;3.50;;;21.30;99.90;;;;;;4171161;28;20296;-74
2021/07/08 07:36:55;;;;;;;6.43;3.60;;;21.30;99.90;;;;;;4168715;28;20292;-72
2021/07/08 07:39:00;;;;;;;7.93;3.83;;;21.40;99.90;;;;;;4171394;28;20280;-73
2021/07/08 07:41:02;;;;;;;4.67;3.57;;;21.40;99.90;;;;;;4178298;28;20219;-73
2021/07/08 07:43:04;;;;;;;5.87;3.50;;;21.40;99.90;;;;;;4177011;28;20230;-72
2021/07/08 07:45:08;;;;;;;5.27;3.17;;;21.50;99.90;;;;;;4176930;28;20271;-73
2021/07/08 07:47:10;;;;;;;6.13;3.47;;;21.50;99.90;;;;;;4177317;28;20240;-73
2021/07/08 07:49:13;;;;;;;7.43;3.60;;;21.60;99.90;;;;;;4177851;28;20215;-73
2021/07/08 07:51:15;;;;;;;11.80;4.00;;;21.70;99.90;;;;;;4182160;28;20683;-74
2021/07/08 07:53:18;;;;;;;6.57;3.80;;;21.70;99.90;;;;;;4172305;28;20215;-72
2021/07/08 07:55:21;;;;;;;5.70;3.73;;;21.80;99.90;;;;;;4176849;28;20261;-72
2021/07/08 07:57:22;;;;;;;8.73;4.10;;;21.80;99.90;;;;;;4175987;28;20247;-72
2021/07/08 07:59:24;;;;;;;6.40;3.63;;;21.90;99.90;;;;;;4176469;28;20263;-72
2021/07/08 08:01:26;;;;;;;4.87;3.63;;;21.80;99.90;;;;;;4169164;28;20574;-72
2021/07/08 08:03:27;;;;;;;5.70;4.07;;;21.80;99.90;;;;;;4172460;28;20276;-73
2021/07/08 08:05:41;;;;;;;7.50;3.90;;;21.80;99.90;;;;;;4176891;28;20268;-74
2021/07/08 08:10:04;;;;;;;9.30;4.50;;;21.80;99.90;;;;;;4175463;28;20213;-72
2021/07/08 08:12:07;;;;;;;6.30;3.97;;;21.80;99.90;;;;;;4171022;28;20265;-72
2021/07/08 08:14:08;;;;;;;5.33;4.13;;;21.80;99.90;;;;;;4177364;28;20214;-72
2021/07/08 08:16:10;;;;;;;5.73;3.67;;;21.70;99.90;;;;;;4173672;28;20239;-72
2021/07/08 08:18:13;;;;;;;8.57;4.50;;;21.70;99.90;;;;;;4171544;28;20269;-72
2021/07/08 08:20:15;;;;;;;5.33;3.90;;;21.70;99.90;;;;;;4172391;28;20252;-72
2021/07/08 08:22:20;;;;;;;5.97;4.27;;;21.70;99.90;;;;;;4175557;28;20730;-72
2021/07/08 08:24:21;;;;;;;5.37;4.37;;;21.80;99.90;;;;;;4173492;28;20217;-72
2021/07/08 08:26:26;;;;;;;7.73;4.83;;;21.80;99.90;;;;;;4169068;28;20207;-74
2021/07/08 08:28:28;;;;;;;8.10;4.80;;;21.80;99.90;;;;;;4170085;28;20241;-72
2021/07/08 08:30:30;;;;;;;8.30;4.70;;;21.80;99.90;;;;;;4171559;28;20258;-72
2021/07/08 08:32:31;;;;;;;6.43;4.73;;;21.80;99.90;;;;;;4169824;28;20219;-72
2021/07/08 08:34:33;;;;;;;6.07;4.70;;;21.80;99.90;;;;;;4177507;28;20273;-72
2021/07/08 08:36:35;;;;;;;6.50;4.57;;;21.80;99.90;;;;;;4171565;28;20660;-71
2021/07/08 08:38:37;;;;;;;6.47;4.50;;;21.80;99.90;;;;;;4168630;28;20741;-72
2021/07/08 08:40:39;;;;;;;9.77;4.53;;;21.70;99.90;;;;;;4169682;28;20284;-72
2021/07/08 08:42:43;;;;;;;5.90;4.90;;;21.80;99.90;;;;;;4177130;28;20987;-72
2021/07/08 08:44:45;;;;;;;6.20;4.33;;;21.70;99.90;;;;;;4176370;28;20256;-71
2021/07/08 08:46:47;;;;;;;9.87;4.50;;;21.70;99.90;;;;;;4177548;28;20210;-72
2021/07/08 08:48:49;;;;;;;6.20;4.80;;;21.70;99.90;;;;;;4173183;28;20303;-75
2021/07/08 08:50:50;;;;;;;7.57;4.90;;;21.70;99.90;;;;;;4177078;28;20215;-72
2021/07/08 08:52:51;;;;;;;6.60;5.03;;;21.70;99.90;;;;;;4177228;28;20215;-71
2021/07/08 08:54:53;;;;;;;6.37;4.87;;;21.70;99.90;;;;;;4193903;28;20670;-72
2021/07/08 08:56:55;;;;;;;7.93;5.23;;;21.70;99.90;;;;;;4175921;28;20226;-73
2021/07/08 08:58:58;;;;;;;6.83;5.00;;;21.60;99.90;;;;;;4177298;28;20206;-72
2021/07/08 09:01:02;;;;;;;8.17;5.63;;;21.70;99.90;;;;;;4175137;28;20210;-72
2021/07/08 09:03:06;;;;;;;7.67;5.70;;;21.60;99.90;;;;;;4169687;28;20246;-72
2021/07/08 09:05:18;;;;;;;8.77;5.97;;;21.70;99.90;;;;;;4173278;28;20248;-72
2021/07/08 09:07:21;;;;;;;9.43;6.40;;;21.70;99.90;;;;;;4176136;28;20229;-72
2021/07/08 09:09:32;;;;;;;9.13;6.10;;;21.70;99.90;;;;;;4173318;28;20223;-74
2021/07/08 09:11:34;;;;;;;9.57;6.37;;;21.70;99.90;;;;;;4176207;28;20682;-72
2021/07/08 09:14:05;;;;;;;10.27;5.87;;;21.60;99.90;;;;;;4163191;28;20310;-72
2021/07/08 09:16:11;;;;;;;6.73;5.80;;;21.60;99.90;;;;;;4169892;28;20209;-73
2021/07/08 09:18:15;;;;;;;8.90;5.70;;;21.50;99.90;;;;;;4171613;28;20858;-73
2021/07/08 09:20:19;;;;;;;10.73;5.83;;;21.50;99.90;;;;;;4175861;28;20321;-73
2021/07/08 09:22:38;;;;;;;9.20;6.03;;;21.50;99.90;;;;;;4170989;28;20691;-73
2021/07/08 09:24:40;;;;;;;8.17;6.13;;;21.50;99.90;;;;;;4176020;28;20221;-73
2021/07/08 09:26:45;;;;;;;7.77;6.03;;;21.50;99.90;;;;;;4176322;28;20643;-72
2021/07/08 09:28:47;;;;;;;12.20;6.30;;;21.50;99.90;;;;;;4175453;28;20240;-73
2021/07/08 09:31:04;;;;;;;8.97;6.10;;;21.60;99.90;;;;;;4175167;28;20601;-73
2021/07/08 09:33:35;;;;;;;9.50;5.90;;;21.60;99.90;;;;;;4164978;28;20222;-73
2021/07/08 09:35:39;;;;;;;8.83;5.97;;;21.70;99.90;;;;;;4166447;28;20222;-72
2021/07/08 09:37:41;;;;;;;10.57;5.97;;;21.70;99.90;;;;;;4170106;28;20296;-72
2021/07/08 09:39:45;;;;;;;8.57;6.10;;;21.80;99.90;;;;;;4167338;28;20219;-72
2021/07/08 09:41:52;;;;;;;7.93;5.90;;;21.80;99.90;;;;;;4167908;28;20966;-72
2021/07/08 09:43:54;;;;;;;7.90;5.83;;;21.80;99.90;;;;;;4167857;28;20219;-72
2021/07/08 09:45:55;;;;;;;8.60;6.07;;;21.90;99.90;;;;;;4166737;28;20265;-73
2021/07/08 09:48:18;;;;;;;11.47;6.20;;;21.90;99.90;;;;;;4166213;28;20723;-73
2021/07/08 09:50:35;;;;;;;10.90;6.23;;;21.90;99.90;;;;;;4167392;28;21028;-73
2021/07/08 09:52:38;;;;;;;10.27;6.57;;;21.90;99.90;;;;;;4168828;28;20222;-72
2021/07/08 09:55:03;;;;;;;11.53;6.80;;;21.90;99.90;;;;;;4169699;28;20604;-73
2021/07/08 09:57:05;;;;;;;9.57;6.53;;;22.00;99.90;;;;;;4161861;28;20337;-72
2021/07/08 09:59:07;;;;;;;10.60;7.47;;;22.00;99.90;;;;;;4162536;28;20286;-72
2021/07/08 10:01:13;;;;;;;11.60;6.80;;;22.00;99.90;;;;;;4163437;28;20216;-72
2021/07/08 10:03:16;;;;;;;9.73;7.23;;;22.00;99.90;;;;;;4165556;28;20233;-71
2021/07/08 10:05:19;;;;;;;9.20;6.97;;;22.10;99.90;;;;;;4161662;28;20214;-73
2021/07/08 10:07:21;;;;;;;8.57;6.93;;;22.10;99.90;;;;;;4163134;28;20388;-72
2021/07/08 10:09:24;;;;;;;10.00;7.37;;;22.10;99.90;;;;;;4164524;28;20226;-73
2021/07/08 10:11:26;;;;;;;9.83;6.67;;;22.10;99.90;;;;;;4163138;28;20219;-73
2021/07/08 10:13:28;;;;;;;9.07;6.97;;;22.10;99.90;;;;;;4164105;28;20886;-72
2021/07/08 10:15:35;;;;;;;8.47;6.47;;;22.10;99.90;;;;;;4162618;28;20274;-73
2021/07/08 10:17:38;;;;;;;8.47;6.40;;;22.10;99.90;;;;;;4162681;28;20238;-74
2021/07/08 10:19:43;;;;;;;8.77;6.63;;;22.10;99.90;;;;;;4160822;28;20265;-73
2021/07/08 10:21:46;;;;;;;10.07;6.93;;;22.10;99.90;;;;;;4163712;28;20224;-73
2021/07/08 10:23:48;;;;;;;9.63;7.60;;;22.00;99.90;;;;;;4164541;28;20586;-73
2021/07/08 10:25:50;;;;;;;10.17;7.20;;;22.00;99.90;;;;;;4161134;28;20245;-73
2021/07/08 10:27:54;;;;;;;8.73;7.20;;;22.00;99.90;;;;;;4161531;28;20779;-73
2021/07/08 10:29:58;;;;;;;8.07;6.60;;;21.90;99.90;;;;;;4169032;28;20214;-72
2021/07/08 10:32:00;;;;;;;8.60;6.90;;;21.90;99.90;;;;;;4176010;28;20215;-73
2021/07/08 10:34:16;;;;;;;11.00;6.80;;;21.90;99.90;;;;;;4173508;28;20221;-73
2021/07/08 10:36:30;;;;;;;10.43;7.07;;;21.80;99.90;;;;;;4176086;28;20250;-73
2021/07/08 10:38:37;;;;;;;8.93;7.20;;;21.80;99.90;;;;;;4170474;28;20226;-73
2021/07/08 10:40:39;;;;;;;10.40;7.07;;;21.70;99.90;;;;;;4166573;28;20280;-73